Lammy — PBRE — position and weather

sailwx.info

Track history (hours):
 
Tides and Currents Weather Stations Pressure Air Temp Water Temp Dewpoint Dewpoint Depression Visibility Wind Speed Wind Dir Waves Ship Positions

Lammy

Last reported at 2018-Feb-18 19:59 UTC. Time now 2018-Feb-18 20:27 UTC.
Position N 53°26' E 004°37'.

Length 95 m; draft 5.3 m.

Type: Cargo ship. MMSI: 245391000.

Date/timePositionNaut miles runAvg speedWind from/ knotsBaromVisibWave heightAir tempDewpointWater temp
2018-Feb-18 19:59N 53°26' E 004°37'6 7.8
2018-Feb-18 19:14N 53°29' E 004°45'2 8.6
2018-Feb-18 19:00N 53°30' E 004°48'4 8.7
2018-Feb-18 18:30N 53°31' E 004°55'5 9.2
2018-Feb-18 18:00N 53°33' E 005°02'5 9.1
2018-Feb-18 17:30N 53°35' E 005°09'8110.5
2018-Feb-18 09:47N 53°58' E 007°21'9 9.5
2018-Feb-18 08:52N 53°60' E 007°36'4 9.8
2018-Feb-18 08:30N 54°01' E 007°41'510.3
2018-Feb-18 07:59N 54°01' E 007°50'510.7
2018-Feb-18 07:29N 54°01' E 007°59'511.0
2018-Feb-18 07:00N 54°01' E 008°09'612.1
2018-Feb-18 06:30N 54°00' E 008°19'713.2
2018-Feb-18 06:00N 53°59' E 008°30'713.5
2018-Feb-18 05:30N 53°56' E 008°40'713.7
2018-Feb-18 05:00N 53°51' E 008°47'612.6
2018-Feb-18 04:30N 53°51' E 008°58'611.2
2018-Feb-18 04:00N 53°53' E 009°07'1 2.8
2018-Feb-18 03:30N 53°54' E 009°09'3 6.4
2018-Feb-18 03:00N 53°56' E 009°13'4 8.9
2018-Feb-18 02:30N 53°59' E 009°17'4 8.5
2018-Feb-18 01:59N 54°04' E 009°19'4 7.7
2018-Feb-18 01:30N 54°07' E 009°20'3 5.1
2018-Feb-18 01:00N 54°09' E 009°23'2 4.5
2018-Feb-18 00:30N 54°10' E 009°26'2 4.3
2018-Feb-18 00:00N 54°11' E 009°30'4 8.9
2018-Feb-17 23:30N 54°14' E 009°36'4 8.1
2018-Feb-17 23:00N 54°17' E 009°39'3 6.0
2018-Feb-17 22:30N 54°19' E 009°43'1 2.8
2018-Feb-17 22:00N 54°20' E 009°44'3 6.7
2018-Feb-17 21:30N 54°22' E 009°49'13 4.3
2018-Feb-17 18:33N 54°23' E 010°11'810.9
2018-Feb-17 17:47N 54°30' E 010°18'712.0
2018-Feb-17 17:12N 54°33' E 010°29'212.3
2018-Feb-17 17:00N 54°34' E 010°33'812.3
2018-Feb-17 16:23N 54°35' E 010°46'412.1
2018-Feb-17 16:00N 54°35' E 010°54'611.6
2018-Feb-17 15:30N 54°36' E 011°04'611.1
2018-Feb-17 15:00N 54°35' E 011°13'611.8
2018-Feb-17 14:30N 54°32' E 011°23'611.4
2018-Feb-17 14:00N 54°31' E 011°32'611.6
2018-Feb-17 13:30N 54°29' E 011°41'611.4
2018-Feb-17 13:00N 54°27' E 011°51'611.8
2018-Feb-17 12:30N 54°27' E 012°01'6911.6
2018-Feb-17 06:36N 55°01' E 013°44'1212.0
2018-Feb-17 05:37N 55°05' E 014°03'512.0
2018-Feb-17 05:14N 55°08' E 014°10'312.3
2018-Feb-17 04:58N 55°10' E 014°14'612.2
2018-Feb-17 04:27N 55°15' E 014°21'612.5
2018-Feb-17 03:59N 55°20' E 014°27'612.4
2018-Feb-17 03:29N 55°24' E 014°34'1012.2
2018-Feb-17 02:42N 55°31' E 014°47'211.9
2018-Feb-17 02:30N 55°32' E 014°50'711.9
2018-Feb-17 01:56N 55°36' E 015°00'511.8
2018-Feb-17 01:30N 55°39' E 015°07'611.8
2018-Feb-17 01:00N 55°42' E 015°16'611.9
2018-Feb-17 00:30N 55°46' E 015°25'611.8
2018-Feb-17 00:00N 55°49' E 015°33'611.7
2018-Feb-16 23:30N 55°52' E 015°42'611.9
2018-Feb-16 23:00N 55°56' E 015°50'612.1
2018-Feb-16 22:30N 56°01' E 015°56'612.2
2018-Feb-16 22:00N 56°06' E 016°02'612.0
2018-Feb-16 21:30N 56°11' E 016°08'611.9
2018-Feb-16 21:00N 56°17' E 016°11'611.9
2018-Feb-16 20:30N 56°23' E 016°14'712.3
2018-Feb-16 19:55N 56°30' E 016°17'1010.3
2018-Feb-16 18:54N 56°40' E 016°22'0 0.0
2018-Feb-16 14:24N 56°40' E 016°22'0 0.0
2018-Feb-16 13:57N 56°40' E 016°22'0 0.0
2018-Feb-16 13:30N 56°40' E 016°22'0 0.0
2018-Feb-16 12:51N 56°40' E 016°22'0 0.0
2018-Feb-16 12:24N 56°40' E 016°22'0 0.0
2018-Feb-16 12:00N 56°40' E 016°22'0 0.0
2018-Feb-16 11:30N 56°40' E 016°22'0 0.0
2018-Feb-16 11:00N 56°40' E 016°22'0 0.0
2018-Feb-16 10:24N 56°40' E 016°22'0 0.0
2018-Feb-16 10:00N 56°40' E 016°22'0 0.0
2018-Feb-16 09:24N 56°40' E 016°22'0 0.0
2018-Feb-16 09:00N 56°40' E 016°22'0 0.0
2018-Feb-16 08:30N 56°40' E 016°22'0 0.0
2018-Feb-16 08:00N 56°40' E 016°22'0 0.2
2018-Feb-16 07:29N 56°40' E 016°22'2910.7
2018-Feb-16 04:44N 57°06' E 016°45'311.6
2018-Feb-16 04:29N 57°09' E 016°46'10111.7
2018-Feb-15 19:52N 58°44' E 017°51'510.9
2018-Feb-15 19:25N 58°48' E 017°46'511.9
2018-Feb-15 19:00N 58°53' E 017°43'713.2
2018-Feb-15 18:31N 58°59' E 017°43'19 0.4
2018-Feb-13 20:23N 59°18' E 017°34'17 6.5
2018-Feb-13 17:50N 59°02' E 017°42'15811.0
2018-Feb-13 03:28N 56°26' E 016°57'611.2
2018-Feb-13 02:59N 56°21' E 016°55'511.3
2018-Feb-13 02:30N 56°15' E 016°53'611.3
2018-Feb-13 01:59N 56°10' E 016°50'510.9
2018-Feb-13 01:29N 56°05' E 016°47'611.5
2018-Feb-13 01:00N 56°01' E 016°38'611.5
2018-Feb-13 00:30N 55°58' E 016°30'611.3
2018-Feb-13 00:00N 55°56' E 016°21'611.4
2018-Feb-12 23:30N 55°53' E 016°12'611.5
2018-Feb-12 23:00N 55°50' E 016°03'611.6
2018-Feb-12 22:30N 55°47' E 015°55'611.7
2018-Feb-12 22:00N 55°44' E 015°45'611.7
2018-Feb-12 21:30N 55°41' E 015°37'611.8
2018-Feb-12 21:00N 55°38' E 015°28'611.8
2018-Feb-12 20:30N 55°35' E 015°19'611.7
2018-Feb-12 20:00N 55°32' E 015°10'611.7
2018-Feb-12 19:29N 55°29' E 015°00'611.7
2018-Feb-12 19:00N 55°26' E 014°52'611.7
2018-Feb-12 18:30N 55°23' E 014°43'711.3
2018-Feb-12 17:53N 55°18' E 014°34'411.5
2018-Feb-12 17:30N 55°15' E 014°29'611.4
2018-Feb-12 16:58N 55°10' E 014°23'611.4
2018-Feb-12 16:24N 55°06' E 014°14'6011.5
2018-Feb-12 11:14N 54°39' E 012°41'311.3
2018-Feb-12 11:00N 54°38' E 012°37'611.4
2018-Feb-12 10:30N 54°35' E 012°29'611.2
2018-Feb-12 10:00N 54°32' E 012°21'510.7
2018-Feb-12 09:30N 54°28' E 012°14'510.3
2018-Feb-12 08:59N 54°25' E 012°07'1311.4
2018-Feb-12 07:52N 54°25' E 011°45'411.2
2018-Feb-12 07:30N 54°27' E 011°39'611.6
2018-Feb-12 07:00N 54°29' E 011°30'611.2
2018-Feb-12 06:30N 54°31' E 011°21'510.6
2018-Feb-12 06:00N 54°33' E 011°13'611.4
2018-Feb-12 05:30N 54°34' E 011°03'611.6
2018-Feb-12 05:00N 54°33' E 010°53'612.0
2018-Feb-12 04:30N 54°32' E 010°43'612.3
2018-Feb-12 04:00N 54°31' E 010°32'27 6.7
2018-Feb-11 23:58N 54°22' E 009°48'3 6.1
2018-Feb-11 23:30N 54°20' E 009°44'3 6.5
2018-Feb-11 23:00N 54°18' E 009°41'3 5.4
2018-Feb-11 22:30N 54°16' E 009°38'2 4.9
2018-Feb-11 22:00N 54°13' E 009°36'4 8.3
2018-Feb-11 21:30N 54°11' E 009°30'4 8.5
2018-Feb-11 21:00N 54°09' E 009°23'1 2.5
2018-Feb-11 20:30N 54°09' E 009°21'4 7.0
2018-Feb-11 19:57N 54°05' E 009°19'3 6.2
2018-Feb-11 19:30N 54°02' E 009°18'1 1.8
2018-Feb-11 19:00N 54°02' E 009°18'3 6.7
2018-Feb-11 18:31N 53°58' E 009°16'2 4.8
2018-Feb-11 18:00N 53°57' E 009°13'0 0.6
2018-Feb-11 17:31N 53°56' E 009°13'2 3.5
2018-Feb-11 17:00N 53°55' E 009°11'2 4.2
2018-Feb-11 16:30N 53°54' E 009°09'0 0.2
2018-Feb-11 16:01N 53°53' E 009°08'2 4.9
2018-Feb-11 15:31N 53°53' E 009°05'510.6
2018-Feb-11 15:00N 53°51' E 008°56'510.8
2018-Feb-11 14:30N 53°50' E 008°47'610.9
2018-Feb-11 13:59N 53°55' E 008°41'26911.8
2018-Feb-10 15:10N 51°46' E 002°09'212.0
2018-Feb-10 15:00N 51°45' E 002°07'612.0
2018-Feb-10 14:30N 51°41' E 001°59'612.2
2018-Feb-10 14:00N 51°37' E 001°52'612.5
2018-Feb-10 13:30N 51°33' E 001°44'612.7
2018-Feb-10 13:00N 51°29' E 001°37'611.2
2018-Feb-10 12:30N 51°26' E 001°29'611.8
2018-Feb-10 12:00N 51°28' E 001°21'713.5
2018-Feb-10 11:30N 51°29' E 001°10'713.3
2018-Feb-10 11:00N 51°29' E 000°60'713.8
2018-Feb-10 10:30N 51°28' E 000°49'612.8
2018-Feb-10 10:00N 51°25' E 000°39'4 8.2
2018-Feb-10 09:30N 51°24' E 000°33'0 0.3
2018-Feb-10 08:58N 51°24' E 000°33'0 0.1
2018-Feb-10 08:28N 51°24' E 000°33'0 0.0
2018-Feb-10 07:55N 51°24' E 000°33'0 0.0
2018-Feb-10 07:28N 51°24' E 000°33'0 0.0
2018-Feb-10 06:58N 51°24' E 000°33'0 0.0
2018-Feb-10 06:25N 51°24' E 000°33'0 0.0
2018-Feb-10 05:43N 51°24' E 000°33'0 0.0
2018-Feb-10 05:28N 51°24' E 000°33'0 0.0
2018-Feb-10 04:58N 51°24' E 000°33'0 0.0
2018-Feb-10 04:28N 51°24' E 000°33'0 0.0
2018-Feb-10 03:37N 51°24' E 000°33'0 0.0
2018-Feb-10 03:22N 51°24' E 000°33'0 0.0
2018-Feb-10 02:58N 51°24' E 000°33'0 0.0
2018-Feb-10 02:25N 51°24' E 000°33'0 0.0
2018-Feb-10 01:58N 51°24' E 000°33'0 0.0
2018-Feb-10 01:25N 51°24' E 000°33'0 0.0
2018-Feb-10 00:58N 51°24' E 000°33'0 0.0
2018-Feb-10 00:28N 51°24' E 000°33'0 0.0
2018-Feb-09 23:52N 51°24' E 000°33'0 0.0
2018-Feb-09 23:28N 51°24' E 000°33'0 0.0
2018-Feb-09 22:58N 51°24' E 000°33'0 0.0
2018-Feb-09 22:46N 51°24' E 000°33'0 0.0
2018-Feb-09 06:00N 51°24' E 000°33'0 0.5
2018-Feb-09 05:30N 51°24' E 000°33'3210.6
2018-Feb-09 02:30N 51°28' E 001°24'510.8
2018-Feb-09 02:00N 51°26' E 001°31'510.0
2018-Feb-09 01:30N 51°21' E 001°35'612.1
2018-Feb-09 01:00N 51°15' E 001°37'611.8
2018-Feb-09 00:30N 51°10' E 001°34'612.0
2018-Feb-09 00:00N 51°06' E 001°26'3712.4
2018-Feb-08 21:00N 50°45' E 000°38'611.8
2018-Feb-08 20:30N 50°42' E 000°29'611.7
2018-Feb-08 20:00N 50°42' E 000°20'  
Track history (hours):
 
Tides and Currents Weather Stations Pressure Air Temp Water Temp Dewpoint Dewpoint Depression Visibility Wind Speed Wind Dir Waves Ship Positions

Lammy

Last reported at 2018-Feb-18 19:59 UTC. Time now 2018-Feb-18 20:27 UTC.
Position N 53°26' E 004°37'.

Length 95 m; draft 5.3 m.

Type: Cargo ship. MMSI: 245391000.

Date/timePositionNaut miles runAvg speedWind from/ knotsBaromVisibWave heightAir tempDewpointWater temp
2018-Feb-18 19:59N 53°26' E 004°37'6 7.8
2018-Feb-18 19:14N 53°29' E 004°45'2 8.6
2018-Feb-18 19:00N 53°30' E 004°48'4 8.7
2018-Feb-18 18:30N 53°31' E 004°55'5 9.2
2018-Feb-18 18:00N 53°33' E 005°02'5 9.1
2018-Feb-18 17:30N 53°35' E 005°09'8110.5
2018-Feb-18 09:47N 53°58' E 007°21'9 9.5
2018-Feb-18 08:52N 53°60' E 007°36'4 9.8
2018-Feb-18 08:30N 54°01' E 007°41'510.3
2018-Feb-18 07:59N 54°01' E 007°50'510.7
2018-Feb-18 07:29N 54°01' E 007°59'511.0
2018-Feb-18 07:00N 54°01' E 008°09'612.1
2018-Feb-18 06:30N 54°00' E 008°19'713.2
2018-Feb-18 06:00N 53°59' E 008°30'713.5
2018-Feb-18 05:30N 53°56' E 008°40'713.7
2018-Feb-18 05:00N 53°51' E 008°47'612.6
2018-Feb-18 04:30N 53°51' E 008°58'611.2
2018-Feb-18 04:00N 53°53' E 009°07'1 2.8
2018-Feb-18 03:30N 53°54' E 009°09'3 6.4
2018-Feb-18 03:00N 53°56' E 009°13'4 8.9
2018-Feb-18 02:30N 53°59' E 009°17'4 8.5
2018-Feb-18 01:59N 54°04' E 009°19'4 7.7
2018-Feb-18 01:30N 54°07' E 009°20'3 5.1
2018-Feb-18 01:00N 54°09' E 009°23'2 4.5
2018-Feb-18 00:30N 54°10' E 009°26'2 4.3
2018-Feb-18 00:00N 54°11' E 009°30'4 8.9
2018-Feb-17 23:30N 54°14' E 009°36'4 8.1
2018-Feb-17 23:00N 54°17' E 009°39'3 6.0
2018-Feb-17 22:30N 54°19' E 009°43'1 2.8
2018-Feb-17 22:00N 54°20' E 009°44'3 6.7
2018-Feb-17 21:30N 54°22' E 009°49'13 4.3
2018-Feb-17 18:33N 54°23' E 010°11'810.9
2018-Feb-17 17:47N 54°30' E 010°18'712.0
2018-Feb-17 17:12N 54°33' E 010°29'212.3
2018-Feb-17 17:00N 54°34' E 010°33'812.3
2018-Feb-17 16:23N 54°35' E 010°46'412.1
2018-Feb-17 16:00N 54°35' E 010°54'611.6
2018-Feb-17 15:30N 54°36' E 011°04'611.1
2018-Feb-17 15:00N 54°35' E 011°13'611.8
2018-Feb-17 14:30N 54°32' E 011°23'611.4
2018-Feb-17 14:00N 54°31' E 011°32'611.6
2018-Feb-17 13:30N 54°29' E 011°41'611.4
2018-Feb-17 13:00N 54°27' E 011°51'611.8
2018-Feb-17 12:30N 54°27' E 012°01'6911.6
2018-Feb-17 06:36N 55°01' E 013°44'1212.0
2018-Feb-17 05:37N 55°05' E 014°03'512.0
2018-Feb-17 05:14N 55°08' E 014°10'312.3
2018-Feb-17 04:58N 55°10' E 014°14'612.2
2018-Feb-17 04:27N 55°15' E 014°21'612.5
2018-Feb-17 03:59N 55°20' E 014°27'612.4
2018-Feb-17 03:29N 55°24' E 014°34'1012.2
2018-Feb-17 02:42N 55°31' E 014°47'211.9
2018-Feb-17 02:30N 55°32' E 014°50'711.9
2018-Feb-17 01:56N 55°36' E 015°00'511.8
2018-Feb-17 01:30N 55°39' E 015°07'611.8
2018-Feb-17 01:00N 55°42' E 015°16'611.9
2018-Feb-17 00:30N 55°46' E 015°25'611.8
2018-Feb-17 00:00N 55°49' E 015°33'611.7
2018-Feb-16 23:30N 55°52' E 015°42'611.9
2018-Feb-16 23:00N 55°56' E 015°50'612.1
2018-Feb-16 22:30N 56°01' E 015°56'612.2
2018-Feb-16 22:00N 56°06' E 016°02'612.0
2018-Feb-16 21:30N 56°11' E 016°08'611.9
2018-Feb-16 21:00N 56°17' E 016°11'611.9
2018-Feb-16 20:30N 56°23' E 016°14'712.3
2018-Feb-16 19:55N 56°30' E 016°17'1010.3
2018-Feb-16 18:54N 56°40' E 016°22'0 0.0
2018-Feb-16 14:24N 56°40' E 016°22'0 0.0
2018-Feb-16 13:57N 56°40' E 016°22'0 0.0
2018-Feb-16 13:30N 56°40' E 016°22'0 0.0
2018-Feb-16 12:51N 56°40' E 016°22'0 0.0
2018-Feb-16 12:24N 56°40' E 016°22'0 0.0
2018-Feb-16 12:00N 56°40' E 016°22'0 0.0
2018-Feb-16 11:30N 56°40' E 016°22'0 0.0
2018-Feb-16 11:00N 56°40' E 016°22'0 0.0
2018-Feb-16 10:24N 56°40' E 016°22'0 0.0
2018-Feb-16 10:00N 56°40' E 016°22'0 0.0
2018-Feb-16 09:24N 56°40' E 016°22'0 0.0
2018-Feb-16 09:00N 56°40' E 016°22'0 0.0
2018-Feb-16 08:30N 56°40' E 016°22'0 0.0
2018-Feb-16 08:00N 56°40' E 016°22'0 0.2
2018-Feb-16 07:29N 56°40' E 016°22'2910.7
2018-Feb-16 04:44N 57°06' E 016°45'311.6
2018-Feb-16 04:29N 57°09' E 016°46'10111.7
2018-Feb-15 19:52N 58°44' E 017°51'510.9
2018-Feb-15 19:25N 58°48' E 017°46'511.9
2018-Feb-15 19:00N 58°53' E 017°43'713.2
2018-Feb-15 18:31N 58°59' E 017°43'19 0.4
2018-Feb-13 20:23N 59°18' E 017°34'17 6.5
2018-Feb-13 17:50N 59°02' E 017°42'15811.0
2018-Feb-13 03:28N 56°26' E 016°57'611.2
2018-Feb-13 02:59N 56°21' E 016°55'511.3
2018-Feb-13 02:30N 56°15' E 016°53'611.3
2018-Feb-13 01:59N 56°10' E 016°50'510.9
2018-Feb-13 01:29N 56°05' E 016°47'611.5
2018-Feb-13 01:00N 56°01' E 016°38'611.5
2018-Feb-13 00:30N 55°58' E 016°30'611.3
2018-Feb-13 00:00N 55°56' E 016°21'611.4
2018-Feb-12 23:30N 55°53' E 016°12'611.5
2018-Feb-12 23:00N 55°50' E 016°03'611.6
2018-Feb-12 22:30N 55°47' E 015°55'611.7
2018-Feb-12 22:00N 55°44' E 015°45'611.7
2018-Feb-12 21:30N 55°41' E 015°37'611.8
2018-Feb-12 21:00N 55°38' E 015°28'611.8
2018-Feb-12 20:30N 55°35' E 015°19'611.7
2018-Feb-12 20:00N 55°32' E 015°10'611.7
2018-Feb-12 19:29N 55°29' E 015°00'611.7
2018-Feb-12 19:00N 55°26' E 014°52'611.7
2018-Feb-12 18:30N 55°23' E 014°43'711.3
2018-Feb-12 17:53N 55°18' E 014°34'411.5
2018-Feb-12 17:30N 55°15' E 014°29'611.4
2018-Feb-12 16:58N 55°10' E 014°23'611.4
2018-Feb-12 16:24N 55°06' E 014°14'6011.5
2018-Feb-12 11:14N 54°39' E 012°41'311.3
2018-Feb-12 11:00N 54°38' E 012°37'611.4
2018-Feb-12 10:30N 54°35' E 012°29'611.2
2018-Feb-12 10:00N 54°32' E 012°21'510.7
2018-Feb-12 09:30N 54°28' E 012°14'510.3
2018-Feb-12 08:59N 54°25' E 012°07'1311.4
2018-Feb-12 07:52N 54°25' E 011°45'411.2
2018-Feb-12 07:30N 54°27' E 011°39'611.6
2018-Feb-12 07:00N 54°29' E 011°30'611.2
2018-Feb-12 06:30N 54°31' E 011°21'510.6
2018-Feb-12 06:00N 54°33' E 011°13'611.4
2018-Feb-12 05:30N 54°34' E 011°03'611.6
2018-Feb-12 05:00N 54°33' E 010°53'612.0
2018-Feb-12 04:30N 54°32' E 010°43'612.3
2018-Feb-12 04:00N 54°31' E 010°32'27 6.7
2018-Feb-11 23:58N 54°22' E 009°48'3 6.1
2018-Feb-11 23:30N 54°20' E 009°44'3 6.5
2018-Feb-11 23:00N 54°18' E 009°41'3 5.4
2018-Feb-11 22:30N 54°16' E 009°38'2 4.9
2018-Feb-11 22:00N 54°13' E 009°36'4 8.3
2018-Feb-11 21:30N 54°11' E 009°30'4 8.5
2018-Feb-11 21:00N 54°09' E 009°23'1 2.5
2018-Feb-11 20:30N 54°09' E 009°21'4 7.0
2018-Feb-11 19:57N 54°05' E 009°19'3 6.2
2018-Feb-11 19:30N 54°02' E 009°18'1 1.8
2018-Feb-11 19:00N 54°02' E 009°18'3 6.7
2018-Feb-11 18:31N 53°58' E 009°16'2 4.8
2018-Feb-11 18:00N 53°57' E 009°13'0 0.6
2018-Feb-11 17:31N 53°56' E 009°13'2 3.5
2018-Feb-11 17:00N 53°55' E 009°11'2 4.2
2018-Feb-11 16:30N 53°54' E 009°09'0 0.2
2018-Feb-11 16:01N 53°53' E 009°08'2 4.9
2018-Feb-11 15:31N 53°53' E 009°05'510.6
2018-Feb-11 15:00N 53°51' E 008°56'510.8
2018-Feb-11 14:30N 53°50' E 008°47'610.9
2018-Feb-11 13:59N 53°55' E 008°41'26911.8
2018-Feb-10 15:10N 51°46' E 002°09'212.0
2018-Feb-10 15:00N 51°45' E 002°07'612.0
2018-Feb-10 14:30N 51°41' E 001°59'612.2
2018-Feb-10 14:00N 51°37' E 001°52'612.5
2018-Feb-10 13:30N 51°33' E 001°44'612.7
2018-Feb-10 13:00N 51°29' E 001°37'611.2
2018-Feb-10 12:30N 51°26' E 001°29'611.8
2018-Feb-10 12:00N 51°28' E 001°21'713.5
2018-Feb-10 11:30N 51°29' E 001°10'713.3
2018-Feb-10 11:00N 51°29' E 000°60'713.8
2018-Feb-10 10:30N 51°28' E 000°49'612.8
2018-Feb-10 10:00N 51°25' E 000°39'4 8.2
2018-Feb-10 09:30N 51°24' E 000°33'0 0.3
2018-Feb-10 08:58N 51°24' E 000°33'0 0.1
2018-Feb-10 08:28N 51°24' E 000°33'0 0.0
2018-Feb-10 07:55N 51°24' E 000°33'0 0.0
2018-Feb-10 07:28N 51°24' E 000°33'0 0.0
2018-Feb-10 06:58N 51°24' E 000°33'0 0.0
2018-Feb-10 06:25N 51°24' E 000°33'0 0.0
2018-Feb-10 05:43N 51°24' E 000°33'0 0.0
2018-Feb-10 05:28N 51°24' E 000°33'0 0.0
2018-Feb-10 04:58N 51°24' E 000°33'0 0.0
2018-Feb-10 04:28N 51°24' E 000°33'0 0.0
2018-Feb-10 03:37N 51°24' E 000°33'0 0.0
2018-Feb-10 03:22N 51°24' E 000°33'0 0.0
2018-Feb-10 02:58N 51°24' E 000°33'0 0.0
2018-Feb-10 02:25N 51°24' E 000°33'0 0.0
2018-Feb-10 01:58N 51°24' E 000°33'0 0.0
2018-Feb-10 01:25N 51°24' E 000°33'0 0.0
2018-Feb-10 00:58N 51°24' E 000°33'0 0.0
2018-Feb-10 00:28N 51°24' E 000°33'0 0.0
2018-Feb-09 23:52N 51°24' E 000°33'0 0.0
2018-Feb-09 23:28N 51°24' E 000°33'0 0.0
2018-Feb-09 22:58N 51°24' E 000°33'0 0.0
2018-Feb-09 22:46N 51°24' E 000°33'0 0.0
2018-Feb-09 06:00N 51°24' E 000°33'0 0.5
2018-Feb-09 05:30N 51°24' E 000°33'3210.6
2018-Feb-09 02:30N 51°28' E 001°24'510.8
2018-Feb-09 02:00N 51°26' E 001°31'510.0
2018-Feb-09 01:30N 51°21' E 001°35'612.1
2018-Feb-09 01:00N 51°15' E 001°37'611.8
2018-Feb-09 00:30N 51°10' E 001°34'612.0
2018-Feb-09 00:00N 51°06' E 001°26'3712.4
2018-Feb-08 21:00N 50°45' E 000°38'611.8
2018-Feb-08 20:30N 50°42' E 000°29'611.7
2018-Feb-08 20:00N 50°42' E 000°20'  

Dump ship's entire track history